createdAt,value
2019-05-16T00:04:37.718Z,11.30
2019-05-16T00:09:32.788Z,11.33
2019-05-16T00:14:28.360Z,11.15
2019-05-16T00:19:24.249Z,11.08
2019-05-16T00:24:21.050Z,11.11
2019-05-16T00:29:18.392Z,11.11
2019-05-16T00:34:14.913Z,11.14
2019-05-16T00:39:10.879Z,11.10
2019-05-16T00:44:08.436Z,11.15
2019-05-16T00:49:03.836Z,11.15
2019-05-16T00:53:59.992Z,11.22
2019-05-16T00:58:55.475Z,11.11
2019-05-16T01:03:51.388Z,11.14
2019-05-16T01:08:48.952Z,11.12
2019-05-16T01:13:45.320Z,11.05
2019-05-16T01:18:40.951Z,11.04
2019-05-16T01:23:38.689Z,10.96
2019-05-16T01:28:34.993Z,10.99
2019-05-16T01:33:30.904Z,11.00
2019-05-16T01:38:28.562Z,11.04
2019-05-16T01:43:23.945Z,11.10
2019-05-16T01:48:19.834Z,11.08
2019-05-16T01:53:17.672Z,11.15
2019-05-16T01:58:13.163Z,11.08
2019-05-16T02:03:09.989Z,10.97
2019-05-16T02:08:08.802Z,10.96
2019-05-16T02:13:03.978Z,10.87
2019-05-16T02:18:00.024Z,10.82
2019-05-16T02:22:58.547Z,10.75
2019-05-16T02:27:53.665Z,10.78
2019-05-16T02:32:52.299Z,10.57
2019-05-16T02:37:47.515Z,10.44
2019-05-16T02:42:43.341Z,10.56
2019-05-16T02:47:42.435Z,10.42
2019-05-16T02:52:41.267Z,10.44
2019-05-16T02:57:36.347Z,10.41
2019-05-16T03:02:31.724Z,10.22
2019-05-16T03:07:37.609Z,10.30
2019-05-16T03:12:30.656Z,10.23
2019-05-16T03:17:25.644Z,10.30
2019-05-16T03:22:22.461Z,10.10
2019-05-16T03:27:21.350Z,10.05
2019-05-16T03:32:16.603Z," 9.91"
2019-05-16T03:37:14.446Z," 9.92"
2019-05-16T03:42:12.725Z," 9.84"
2019-05-16T03:47:11.221Z," 9.94"
2019-05-16T03:52:05.967Z," 9.91"
2019-05-16T03:57:02.104Z," 9.94"
2019-05-16T04:02:01.243Z," 9.98"
2019-05-16T04:06:57.373Z," 9.94"
2019-05-16T04:11:52.802Z," 9.77"
2019-05-16T04:16:50.956Z," 9.83"
2019-05-16T04:21:47.058Z," 9.95"
2019-05-16T04:26:42.923Z," 9.92"
2019-05-16T04:31:41.207Z," 9.79"
2019-05-16T04:36:36.274Z," 9.83"
2019-05-16T04:41:31.624Z," 9.80"
2019-05-16T04:46:27.535Z," 9.84"
2019-05-16T04:51:23.556Z," 9.94"
2019-05-16T04:56:21.700Z," 9.94"
2019-05-16T05:01:17.273Z," 9.89"
2019-05-16T05:06:12.958Z," 9.95"
2019-05-16T05:11:10.719Z," 9.91"
2019-05-16T05:16:06.088Z," 9.89"
2019-05-16T05:21:01.872Z," 9.97"
2019-05-16T05:26:00.084Z," 9.94"
2019-05-16T05:30:55.637Z,10.07
2019-05-16T05:35:51.604Z,10.07
2019-05-16T05:40:47.481Z,10.22
2019-05-16T05:45:44.518Z,10.31
2019-05-16T05:50:40.189Z,10.35
2019-05-16T05:55:36.300Z,10.34
2019-05-16T06:00:32.740Z,10.30
2019-05-16T06:05:30.609Z,10.28
2019-05-16T06:10:25.453Z,10.22
2019-05-16T06:15:22.234Z,10.13
2019-05-16T06:20:20.109Z,10.19
2019-05-16T06:25:15.647Z,10.13
2019-05-16T06:30:12.403Z,10.05
2019-05-16T06:35:09.800Z,10.12
2019-05-16T06:40:05.282Z,10.13
2019-05-16T06:45:01.056Z,10.25
2019-05-16T06:50:00.084Z,10.25
2019-05-16T06:54:56.557Z,10.34
2019-05-16T06:59:52.246Z,10.67
2019-05-16T07:04:50.528Z,10.57
2019-05-16T07:09:59.808Z,10.69
2019-05-16T07:14:44.929Z,10.75
2019-05-16T07:19:40.904Z,10.75
2019-05-16T07:24:39.840Z,10.61
2019-05-16T07:29:35.141Z,10.81
2019-05-16T07:34:31.273Z,10.76
2019-05-16T07:39:27.074Z,10.94
2019-05-16T07:44:24.060Z,10.92
2019-05-16T07:49:19.846Z,11.14
2019-05-16T07:54:15.781Z,11.07
2019-05-16T07:59:11.812Z,11.29
2019-05-16T08:04:10.396Z,11.52
2019-05-16T08:09:07.966Z,11.78
2019-05-16T08:14:04.600Z,11.88
2019-05-16T08:19:01.728Z,12.15
2019-05-16T08:24:05.659Z,12.25
2019-05-16T08:29:01.754Z,11.80
2019-05-16T08:33:56.402Z,11.73
2019-05-16T08:38:53.344Z,11.77
2019-05-16T08:43:52.591Z,11.68
2019-05-16T08:53:50.441Z,11.83
2019-05-16T08:58:46.405Z,12.28
2019-05-16T09:03:42.213Z,12.29
2019-05-16T09:08:38.398Z,12.27
2019-05-16T09:10:14.341Z,12.06
2019-05-16T09:13:36.845Z,12.43
2019-05-16T09:18:40.817Z,12.46
2019-05-16T09:23:32.176Z,12.72
2019-05-16T09:28:28.777Z,12.73
2019-05-16T09:33:26.978Z,12.75
2019-05-16T09:38:28.169Z,12.98
2019-05-16T09:43:20.943Z,12.98
2019-05-16T09:48:19.229Z,13.19
2019-05-16T09:53:16.983Z,13.20
2019-05-16T09:58:12.624Z,13.49
2019-05-16T10:03:08.497Z,13.30
2019-05-16T10:08:06.718Z,13.12
2019-05-16T10:13:01.479Z,12.93
2019-05-16T10:17:57.511Z,13.08
2019-05-16T10:22:53.198Z,12.86
2019-05-16T10:27:48.871Z,12.78
2019-05-16T10:32:44.350Z,12.73
2019-05-16T10:37:39.748Z,12.87
2019-05-16T10:42:38.063Z,12.62
2019-05-16T10:47:33.736Z,12.58
2019-05-16T10:52:29.485Z,12.61
2019-05-16T10:57:29.407Z,12.55
2019-05-16T11:02:24.366Z,12.57
2019-05-16T11:07:20.045Z,12.57
2019-05-16T11:12:19.819Z,12.45
2019-05-16T11:17:18.786Z,12.43
2019-05-16T11:22:14.676Z,12.45
2019-05-16T11:27:10.099Z,12.47
2019-05-16T11:32:07.027Z,12.50
2019-05-16T11:37:02.850Z,12.55
2019-05-16T11:41:59.763Z,12.60
2019-05-16T11:46:57.638Z,12.79
2019-05-16T11:51:53.835Z,13.23
2019-05-16T11:56:51.255Z,13.71
2019-05-16T12:01:47.747Z,13.78
2019-05-16T12:06:46.787Z,13.87
2019-05-16T12:11:41.450Z,13.87
2019-05-16T12:16:37.944Z,13.72
2019-05-16T12:21:33.437Z,13.50
2019-05-16T12:26:28.993Z,13.38
2019-05-16T12:31:24.458Z,13.18
2019-05-16T12:36:19.606Z,12.87
2019-05-16T12:41:15.094Z,12.60
2019-05-16T12:46:10.629Z,12.47
2019-05-16T12:51:08.611Z,12.53
2019-05-16T12:56:03.964Z,12.39
2019-05-16T13:00:59.813Z,12.50
2019-05-16T13:05:57.179Z,12.54
2019-05-16T13:10:52.624Z,12.35
2019-05-16T13:15:48.740Z,12.45
2019-05-16T13:20:46.536Z,12.47
2019-05-16T13:25:43.067Z,12.49
2019-05-16T13:30:38.765Z,12.42
2019-05-16T13:35:37.072Z,12.49
2019-05-16T13:40:32.367Z,12.40
2019-05-16T13:45:28.554Z,12.62
2019-05-16T13:50:27.100Z,12.73
2019-05-16T13:55:22.583Z,12.87
2019-05-16T14:00:18.578Z,12.85
2019-05-16T14:05:17.692Z,12.75
2019-05-16T14:10:12.788Z,12.91
2019-05-16T14:15:08.525Z,12.80
2019-05-16T14:20:04.416Z,12.76
2019-05-16T14:25:00.319Z,12.70
2019-05-16T14:29:57.812Z,12.68
2019-05-16T14:34:53.489Z,12.80
2019-05-16T14:39:50.603Z,12.86
2019-05-16T14:45:03.849Z,12.95
2019-05-16T14:49:48.508Z,12.93
2019-05-16T14:54:44.130Z,12.58
2019-05-16T14:59:40.383Z,12.47
2019-05-16T15:04:37.598Z,12.40
2019-05-16T15:09:33.174Z,12.27
2019-05-16T15:14:29.115Z,12.15
2019-05-16T15:19:24.763Z,12.17
2019-05-16T15:24:20.729Z,12.18
2019-05-16T15:29:17.412Z,12.18
2019-05-16T15:34:12.750Z,12.18
2019-05-16T15:39:09.824Z,12.12
2019-05-16T15:44:07.863Z,12.06
2019-05-16T15:49:02.807Z,12.00
2019-05-16T15:53:58.991Z,11.65
2019-05-16T15:58:54.721Z,11.48
2019-05-16T16:03:51.568Z,11.50
2019-05-16T16:08:47.632Z,11.50
2019-05-16T16:13:43.791Z,11.32
2019-05-16T16:18:39.530Z,11.45
2019-05-16T16:23:37.368Z,11.51
2019-05-16T16:28:32.609Z,11.37
2019-05-16T16:33:30.051Z,11.55
2019-05-16T16:38:26.128Z,11.33
2019-05-16T16:43:24.160Z,11.10
2019-05-16T16:48:19.159Z,11.02
2019-05-16T16:53:17.466Z,11.22
2019-05-16T16:58:12.869Z,11.37
2019-05-16T17:03:10.538Z,11.47
2019-05-16T17:08:07.802Z,11.11
2019-05-16T17:13:06.735Z,11.10
2019-05-16T17:18:01.672Z,11.14
2019-05-16T17:22:57.953Z,11.29
2019-05-16T17:27:53.856Z,11.32
2019-05-16T17:32:49.750Z,11.10
2019-05-16T17:37:46.696Z,11.11
2019-05-16T17:42:42.356Z,11.04
2019-05-16T17:47:38.194Z,11.10
2019-05-16T17:52:33.926Z,11.04
2019-05-16T17:57:29.381Z,10.92
2019-05-16T18:02:26.726Z,10.90
2019-05-16T18:07:22.574Z,10.90
2019-05-16T18:12:19.333Z,10.82
2019-05-16T18:17:17.687Z,10.68
2019-05-16T18:22:12.876Z,10.48
2019-05-16T18:27:09.509Z,10.53
2019-05-16T18:32:07.006Z,10.37
2019-05-16T18:37:02.240Z,10.48
2019-05-16T18:41:58.143Z,10.48
2019-05-16T18:47:04.846Z,10.41
2019-05-16T18:51:53.849Z,10.38
2019-05-16T18:56:49.562Z,10.41
2019-05-16T19:01:46.930Z,10.41
2019-05-16T19:06:43.569Z,10.42
2019-05-16T19:11:40.043Z,10.35
2019-05-16T19:16:35.442Z,10.33
2019-05-16T19:21:31.254Z,10.26
2019-05-16T19:26:27.354Z,10.19
2019-05-16T19:31:24.486Z,10.10
2019-05-16T19:36:21.069Z,10.17
2019-05-16T19:41:16.989Z,10.23
2019-05-16T19:46:12.809Z,10.23
2019-05-16T19:51:08.631Z,10.19
2019-05-16T19:56:07.008Z,10.15
2019-05-16T20:01:02.866Z,10.26
2019-05-16T20:05:58.269Z,10.26
2019-05-16T20:10:54.313Z,10.31
2019-05-16T20:15:50.238Z,10.26
2019-05-16T20:20:47.239Z,10.28
2019-05-16T20:25:42.835Z,10.26
2019-05-16T20:30:39.241Z,10.37
2019-05-16T20:35:37.551Z,10.40
2019-05-16T20:40:32.816Z,10.35
2019-05-16T20:45:29.764Z,10.49
2019-05-16T20:50:26.258Z,10.49
2019-05-16T20:55:22.023Z,10.42
2019-05-16T21:00:17.960Z,10.34
2019-05-16T21:05:13.781Z,10.38
2019-05-16T21:10:09.533Z,10.31
2019-05-16T21:15:06.366Z,10.30
2019-05-16T21:20:03.238Z,10.38
2019-05-16T21:24:59.481Z,10.40
2019-05-16T21:29:56.700Z,10.41
2019-05-16T21:34:52.353Z,10.40
2019-05-16T21:39:48.625Z,10.28
2019-05-16T21:44:46.527Z,10.33
2019-05-16T21:49:42.402Z,10.30
2019-05-16T21:54:38.321Z,10.23
2019-05-16T21:59:37.589Z,10.10
2019-05-16T22:04:33.575Z,10.10
2019-05-16T22:09:29.446Z,10.30
2019-05-16T22:14:27.522Z,10.25
2019-05-16T22:19:23.941Z,10.22
2019-05-16T22:24:19.389Z,10.10
2019-05-16T22:29:17.018Z,10.05
2019-05-16T22:34:12.311Z,10.10
2019-05-16T22:39:08.092Z,10.13
2019-05-16T22:44:03.836Z,10.04
2019-05-16T22:48:59.643Z,10.05
2019-05-16T22:53:58.539Z,10.12
2019-05-16T22:58:53.354Z,10.09
2019-05-16T23:03:49.353Z,10.02
2019-05-16T23:08:47.150Z," 9.89"
2019-05-16T23:13:42.227Z," 9.95"
2019-05-16T23:18:37.899Z," 9.97"
2019-05-16T23:23:37.172Z,10.02
2019-05-16T23:28:33.612Z,10.02
2019-05-16T23:33:30.104Z," 9.95"
2019-05-16T23:38:27.590Z,10.02
2019-05-16T23:43:23.129Z,10.01
2019-05-16T23:48:19.885Z,10.09
2019-05-16T23:53:16.484Z,10.12
2019-05-16T23:58:12.495Z," 9.99"
